createdAt,value
2019-03-04T00:00:09.292Z,10.18
2019-03-04T00:01:09.309Z,10.17
2019-03-04T00:02:09.268Z,10.22
2019-03-04T00:03:09.256Z,10.08
2019-03-04T00:04:09.250Z,10.15
2019-03-04T00:05:09.236Z,10.09
2019-03-04T00:06:09.226Z,10.07
2019-03-04T00:07:09.228Z,10.08
2019-03-04T00:08:09.210Z,10.09
2019-03-04T00:09:09.186Z,10.15
2019-03-04T00:10:09.192Z,10.09
2019-03-04T00:11:09.168Z,10.18
2019-03-04T00:12:09.176Z,10.17
2019-03-04T00:13:09.142Z,10.17
2019-03-04T00:14:09.134Z,10.17
2019-03-04T00:15:09.123Z,10.18
2019-03-04T00:16:09.120Z,10.18
2019-03-04T00:17:09.176Z,10.15
2019-03-04T00:18:09.089Z,10.14
2019-03-04T00:19:09.079Z,10.15
2019-03-04T00:20:09.058Z,10.05
2019-03-04T00:21:09.059Z,10.08
2019-03-04T00:22:09.062Z,9.99
2019-03-04T00:23:09.044Z,10.05
2019-03-04T00:24:09.016Z,10.01
2019-03-04T00:25:09.018Z,9.99
2019-03-04T00:26:08.991Z,10.05
2019-03-04T00:27:09.028Z,9.99
2019-03-04T00:28:08.991Z,10.09
2019-03-04T00:29:08.958Z,10.07
2019-03-04T00:30:08.951Z,10.02
2019-03-04T00:31:08.961Z,9.91
2019-03-04T00:32:08.934Z,9.97
2019-03-04T00:33:08.944Z,9.91
2019-03-04T00:34:08.910Z,9.94
2019-03-04T00:35:08.899Z,9.91
2019-03-04T00:36:08.880Z,9.89
2019-03-04T00:37:08.872Z,9.97
2019-03-04T00:38:08.882Z,9.90
2019-03-04T00:39:08.848Z,9.78
2019-03-04T00:40:08.850Z,9.76
2019-03-04T00:41:08.824Z,9.78
2019-03-04T00:42:08.811Z,9.86
2019-03-04T00:43:08.841Z,9.74
2019-03-04T00:44:08.792Z,9.83
2019-03-04T00:45:08.778Z,9.69
2019-03-04T00:46:08.773Z,9.79
2019-03-04T00:47:08.760Z,9.78
2019-03-04T00:48:08.777Z,9.78
2019-03-04T00:49:08.735Z,9.75
2019-03-04T00:50:08.732Z,9.69
2019-03-04T00:51:08.714Z,9.81
2019-03-04T00:52:08.710Z,9.78
2019-03-04T00:53:08.690Z,9.79
2019-03-04T00:54:08.701Z,9.74
2019-03-04T00:55:08.672Z,9.79
2019-03-04T00:56:08.669Z,9.74
2019-03-04T00:57:08.683Z,9.79
2019-03-04T00:58:08.629Z,9.75
2019-03-04T00:59:08.646Z,9.84
2019-03-04T01:00:08.609Z,9.83
2019-03-04T01:01:08.601Z,9.86
2019-03-04T01:02:08.589Z,9.76
2019-03-04T01:03:08.638Z,9.83
2019-03-04T01:04:08.689Z,9.78
2019-03-04T01:05:08.584Z,9.86
2019-03-04T01:06:08.608Z,9.75
2019-03-04T01:07:08.545Z,9.76
2019-03-04T01:08:08.524Z,9.78
2019-03-04T01:09:08.534Z,9.69
2019-03-04T01:10:08.515Z,9.83
2019-03-04T01:11:08.486Z,9.74
2019-03-04T01:12:08.481Z,9.78
2019-03-04T01:13:08.473Z,9.76
2019-03-04T01:14:08.486Z,9.75
2019-03-04T01:15:08.460Z,9.78
2019-03-04T01:16:08.444Z,9.81
2019-03-04T01:17:08.421Z,9.84
2019-03-04T01:18:08.416Z,9.84
2019-03-04T01:19:08.400Z,9.89
2019-03-04T01:20:08.404Z,9.89
2019-03-04T01:21:08.376Z,9.97
2019-03-04T01:22:08.369Z,9.89
2019-03-04T01:23:08.354Z,9.89
2019-03-04T01:24:08.343Z,9.87
2019-03-04T01:25:08.368Z,9.89
2019-03-04T01:26:08.316Z,9.89
2019-03-04T01:27:08.302Z,9.91
2019-03-04T01:28:08.297Z,9.94
2019-03-04T01:29:08.286Z,10.01
2019-03-04T01:30:08.302Z,9.93
2019-03-04T01:31:08.264Z,9.94
2019-03-04T01:32:08.250Z,9.94
2019-03-04T01:33:08.237Z,9.94
2019-03-04T01:34:08.231Z,9.97
2019-03-04T01:35:08.257Z,9.96
2019-03-04T01:36:08.216Z,9.93
2019-03-04T01:37:08.204Z,9.94
2019-03-04T01:38:08.245Z,9.93
2019-03-04T01:39:08.180Z,9.97
2019-03-04T01:40:08.170Z,9.97
2019-03-04T01:41:08.177Z,9.99
2019-03-04T01:42:08.142Z,9.94
2019-03-04T01:43:08.123Z,9.96
2019-03-04T01:44:08.123Z,9.99
2019-03-04T01:45:08.112Z,9.93
2019-03-04T01:46:08.123Z,10.02
2019-03-04T01:47:08.088Z,9.99
2019-03-04T01:48:08.070Z,9.99
2019-03-04T01:49:08.061Z,9.99
2019-03-04T01:50:08.046Z,9.99
2019-03-04T01:51:08.053Z,9.96
2019-03-04T01:52:08.032Z,9.94
2019-03-04T01:53:08.025Z,9.89
2019-03-04T01:54:08.007Z,9.91
2019-03-04T01:55:07.997Z,9.81
2019-03-04T01:56:08.012Z,9.84
2019-03-04T01:57:07.966Z,9.87
2019-03-04T01:58:07.967Z,9.81
2019-03-04T01:59:07.947Z,9.78
2019-03-04T02:00:07.939Z,9.84
2019-03-04T02:01:07.943Z,9.91
2019-03-04T02:02:07.909Z,9.75
2019-03-04T02:03:07.899Z,9.87
2019-03-04T02:04:07.899Z,9.83
2019-03-04T02:05:07.879Z,9.78
2019-03-04T02:06:07.901Z,9.79
2019-03-04T02:07:07.854Z,9.78
2019-03-04T02:08:07.854Z,9.76
2019-03-04T02:09:07.831Z,9.75
2019-03-04T02:10:07.824Z,9.83
2019-03-04T02:11:07.811Z,9.74
2019-03-04T02:12:07.816Z,9.72
2019-03-04T02:13:07.790Z,9.74
2019-03-04T02:14:07.779Z,9.76
2019-03-04T02:15:07.770Z,9.72
2019-03-04T02:16:07.751Z,9.75
2019-03-04T02:17:07.771Z,9.75
2019-03-04T02:18:07.731Z,9.71
2019-03-04T02:19:07.723Z,9.66
2019-03-04T02:20:07.710Z,9.69
2019-03-04T02:21:07.702Z,9.66
2019-03-04T02:22:07.702Z,9.66
2019-03-04T02:23:07.670Z,9.64
2019-03-04T02:24:07.666Z,9.66
2019-03-04T02:25:07.653Z,9.64
2019-03-04T02:26:07.639Z,9.64
2019-03-04T02:27:07.680Z,9.65
2019-03-04T02:28:07.615Z,9.60
2019-03-04T02:29:07.604Z,9.58
2019-03-04T02:30:07.590Z,9.58
2019-03-04T02:31:07.585Z,9.51
2019-03-04T02:32:07.576Z,9.56
2019-03-04T02:33:07.606Z,9.51
2019-03-04T02:34:07.553Z,9.60
2019-03-04T02:35:07.550Z,9.51
2019-03-04T02:36:07.537Z,9.53
2019-03-04T02:37:07.514Z,9.61
2019-03-04T02:38:07.533Z,9.58
2019-03-04T02:39:07.505Z,9.51
2019-03-04T02:40:07.483Z,9.56
2019-03-04T02:41:07.473Z,9.58
2019-03-04T02:42:07.468Z,9.60
2019-03-04T02:43:07.477Z,9.57
2019-03-04T02:44:07.445Z,9.56
2019-03-04T02:45:07.429Z,9.54
2019-03-04T02:46:07.416Z,9.53
2019-03-04T02:47:07.404Z,9.58
2019-03-04T02:48:07.413Z,9.57
2019-03-04T02:49:07.381Z,9.57
2019-03-04T02:50:07.375Z,9.57
2019-03-04T02:51:07.361Z,9.57
2019-03-04T02:52:07.349Z,9.57
2019-03-04T02:53:07.369Z,9.58
2019-03-04T02:54:07.334Z,9.56
2019-03-04T02:55:07.316Z,9.61
2019-03-04T02:56:07.316Z,9.57
2019-03-04T02:57:07.296Z,9.48
2019-03-04T02:58:07.283Z,9.56
2019-03-04T02:59:07.337Z,9.50
2019-03-04T03:00:07.262Z,9.61
2019-03-04T03:01:07.255Z,9.54
2019-03-04T03:02:07.236Z,9.56
2019-03-04T03:03:07.221Z,9.56
2019-03-04T03:04:07.227Z,9.50
2019-03-04T03:05:07.204Z,9.58
2019-03-04T03:06:07.189Z,9.48
2019-03-04T03:07:07.183Z,9.48
2019-03-04T03:08:07.169Z,9.43
2019-03-04T03:09:07.181Z,9.38
2019-03-04T03:10:07.144Z,9.39
2019-03-04T03:11:07.144Z,9.38
2019-03-04T03:12:07.130Z,9.40
2019-03-04T03:13:07.115Z,9.36
2019-03-04T03:14:07.137Z,9.33
2019-03-04T03:15:07.090Z,9.33
2019-03-04T03:16:07.101Z,9.33
2019-03-04T03:17:07.066Z,9.33
2019-03-04T03:18:07.060Z,9.31
2019-03-04T03:19:07.043Z,9.36
2019-03-04T03:20:07.053Z,9.32
2019-03-04T03:21:07.015Z,9.36
2019-03-04T03:22:07.017Z,9.38
2019-03-04T03:23:06.998Z,9.28
2019-03-04T03:24:06.993Z,9.24
2019-03-04T03:25:07.001Z,9.23
2019-03-04T03:26:06.965Z,9.29
2019-03-04T03:27:06.957Z,9.23
2019-03-04T03:28:06.950Z,9.18
2019-03-04T03:29:06.936Z,9.24
2019-03-04T03:30:06.950Z,9.24
2019-03-04T03:31:06.907Z,9.32
2019-03-04T03:32:06.901Z,9.33
2019-03-04T03:33:06.885Z,9.38
2019-03-04T03:34:07.046Z,9.39
2019-03-04T03:35:08.371Z,9.33
2019-03-04T03:36:06.859Z,9.36
2019-03-04T03:37:06.838Z,9.29
2019-03-04T03:38:06.833Z,9.32
2019-03-04T03:39:06.818Z,9.36
2019-03-04T03:40:06.830Z,9.33
2019-03-04T03:41:06.814Z,9.38
2019-03-04T03:42:06.786Z,9.36
2019-03-04T03:43:06.770Z,9.35
2019-03-04T03:44:06.765Z,9.35
2019-03-04T03:45:06.752Z,9.38
2019-03-04T03:46:06.887Z,9.35
2019-03-04T03:47:06.741Z,9.35
2019-03-04T03:48:06.723Z,9.35
2019-03-04T03:49:06.701Z,9.36
2019-03-04T03:50:06.696Z,9.39
2019-03-04T03:51:06.699Z,9.38
2019-03-04T03:52:06.675Z,9.39
2019-03-04T03:53:06.668Z,9.35
2019-03-04T03:54:06.650Z,9.29
2019-03-04T03:55:06.637Z,9.33
2019-03-04T03:56:06.653Z,9.29
2019-03-04T03:57:06.619Z,9.21
2019-03-04T03:58:06.617Z,9.28
2019-03-04T03:59:06.590Z,9.18
2019-03-04T04:00:06.584Z,9.26
2019-03-04T04:01:06.586Z,9.21
2019-03-04T04:02:06.560Z,9.28
2019-03-04T04:03:06.549Z,9.35
2019-03-04T04:04:06.540Z,9.35
2019-03-04T04:05:06.523Z,9.35
2019-03-04T04:06:06.535Z,9.32
2019-03-04T04:07:06.508Z,9.36
2019-03-04T04:08:06.514Z,9.28
2019-03-04T04:09:06.480Z,9.32
2019-03-04T04:10:06.511Z,9.26
2019-03-04T04:11:06.493Z,9.31
2019-03-04T04:12:06.443Z,9.20
2019-03-04T04:13:06.430Z,9.29
2019-03-04T04:14:06.423Z,9.31
2019-03-04T04:15:06.420Z,9.20
2019-03-04T04:16:06.399Z,9.31
2019-03-04T04:17:06.405Z,9.29
2019-03-04T04:18:06.393Z,9.38
2019-03-04T04:19:06.369Z,9.39
2019-03-04T04:20:06.393Z,9.35
2019-03-04T04:21:06.346Z,9.35
2019-03-04T04:22:06.357Z,9.35
2019-03-04T04:23:06.319Z,9.35
2019-03-04T04:24:06.310Z,9.36
2019-03-04T04:25:06.313Z,9.38
2019-03-04T04:26:06.285Z,9.36
2019-03-04T04:27:06.300Z,9.36
2019-03-04T04:28:06.271Z,9.32
2019-03-04T04:29:06.255Z,9.38
2019-03-04T04:30:06.248Z,9.43
2019-03-04T04:31:06.230Z,9.38
2019-03-04T04:32:06.250Z,9.39
2019-03-04T04:33:06.221Z,9.46
2019-03-04T04:34:06.211Z,9.42
2019-03-04T04:35:06.188Z,9.40
2019-03-04T04:36:06.179Z,9.43
2019-03-04T04:37:06.164Z,9.39
2019-03-04T04:38:06.166Z,9.35
2019-03-04T04:39:06.140Z,9.32
2019-03-04T04:40:06.127Z,9.46
2019-03-04T04:41:06.118Z,9.47
2019-03-04T04:42:06.110Z,9.46
2019-03-04T04:43:06.121Z,9.46
2019-03-04T04:44:06.086Z,9.50
2019-03-04T04:45:06.072Z,9.53
2019-03-04T04:46:06.060Z,9.50
2019-03-04T04:47:06.050Z,9.60
2019-03-04T04:48:06.061Z,9.54
2019-03-04T04:49:06.028Z,9.58
2019-03-04T04:50:06.023Z,9.53
2019-03-04T04:51:06.012Z,9.57
2019-03-04T04:52:05.995Z,9.60
2019-03-04T04:53:06.010Z,9.65
2019-03-04T04:54:05.964Z,9.51
2019-03-04T04:55:05.966Z,9.48
2019-03-04T04:56:05.950Z,9.54
2019-03-04T04:57:05.938Z,9.58
2019-03-04T04:58:05.945Z,9.56
2019-03-04T04:59:05.923Z,9.61
2019-03-04T05:00:05.900Z,9.64
2019-03-04T05:01:05.896Z,9.54
2019-03-04T05:02:05.880Z,9.54
2019-03-04T05:03:05.864Z,9.54
2019-03-04T05:04:05.897Z,9.64
2019-03-04T05:05:05.854Z,9.64
2019-03-04T05:06:05.844Z,9.60
2019-03-04T05:07:05.837Z,9.57
2019-03-04T05:08:05.813Z,9.61
2019-03-04T05:09:05.824Z,9.58
2019-03-04T05:10:05.791Z,9.65
2019-03-04T05:11:05.777Z,9.56
2019-03-04T05:12:05.779Z,9.57
2019-03-04T05:13:05.757Z,9.58
2019-03-04T05:14:05.784Z,9.61
2019-03-04T05:15:05.728Z,9.60
2019-03-04T05:16:05.733Z,9.68
2019-03-04T05:17:05.708Z,9.61
2019-03-04T05:18:05.702Z,9.68
2019-03-04T05:19:05.700Z,9.65
2019-03-04T05:20:05.714Z,9.66
2019-03-04T05:21:05.665Z,9.69
2019-03-04T05:22:05.678Z,9.68
2019-03-04T05:23:05.646Z,9.65
2019-03-04T05:24:05.645Z,9.65
2019-03-04T05:25:05.645Z,9.72
2019-03-04T05:26:05.606Z,9.68
2019-03-04T05:27:05.599Z,9.78
2019-03-04T05:28:05.614Z,9.69
2019-03-04T05:29:05.579Z,9.75
2019-03-04T05:30:05.582Z,9.75
2019-03-04T05:31:05.550Z,9.71
2019-03-04T05:32:05.542Z,9.75
2019-03-04T05:33:05.529Z,9.72
2019-03-04T05:34:05.517Z,9.72
2019-03-04T05:35:05.525Z,9.69
2019-03-04T05:36:05.505Z,9.69
2019-03-04T05:37:05.484Z,9.68
2019-03-04T05:38:05.471Z,9.69
2019-03-04T05:39:05.459Z,9.60
2019-03-04T05:40:05.983Z,9.66
2019-03-04T05:41:05.452Z,9.66
2019-03-04T05:42:05.427Z,9.64
2019-03-04T05:43:05.418Z,9.66
2019-03-04T05:44:05.410Z,9.66
2019-03-04T05:45:05.402Z,9.68
2019-03-04T05:46:05.402Z,9.66
2019-03-04T05:47:05.373Z,9.68
2019-03-04T05:48:07.573Z,9.64
2019-03-04T05:49:05.346Z,9.66
2019-03-04T05:50:05.336Z,9.69
2019-03-04T05:51:05.349Z,9.68
2019-03-04T05:52:05.322Z,9.58
2019-03-04T05:53:05.309Z,9.61
2019-03-04T05:54:05.300Z,9.57
2019-03-04T05:55:05.285Z,9.54
2019-03-04T05:56:05.300Z,9.58
2019-03-04T05:57:05.257Z,9.51
2019-03-04T05:58:05.248Z,9.43
2019-03-04T05:59:05.235Z,9.40
2019-03-04T06:00:05.230Z,9.31
2019-03-04T06:01:05.244Z,9.32
2019-03-04T06:02:05.208Z,9.36
2019-03-04T06:03:05.199Z,9.32
2019-03-04T06:04:05.179Z,9.33
2019-03-04T06:05:05.173Z,9.32
2019-03-04T06:06:05.160Z,9.32
2019-03-04T06:07:05.162Z,9.35
2019-03-04T06:08:05.147Z,9.33
2019-03-04T06:09:05.133Z,9.38
2019-03-04T06:10:05.118Z,9.39
2019-03-04T06:11:05.103Z,9.31
2019-03-04T06:12:05.107Z,9.33
2019-03-04T06:13:05.078Z,9.35
2019-03-04T06:14:05.065Z,9.39
2019-03-04T06:15:05.064Z,9.36
2019-03-04T06:16:05.055Z,9.43
2019-03-04T06:17:05.050Z,9.46
2019-03-04T06:18:05.029Z,9.50
2019-03-04T06:19:05.011Z,9.48
2019-03-04T06:20:05.000Z,9.50
2019-03-04T06:21:04.988Z,9.50
2019-03-04T06:22:04.994Z,9.50
2019-03-04T06:23:04.963Z,9.57
2019-03-04T06:24:04.958Z,9.56
2019-03-04T06:25:07.450Z,9.56
2019-03-04T06:26:04.943Z,9.57
2019-03-04T06:27:04.942Z,9.57
2019-03-04T06:28:04.915Z,9.54
2019-03-04T06:29:04.899Z,9.53
2019-03-04T06:30:04.887Z,9.54
2019-03-04T06:31:04.876Z,9.57
2019-03-04T06:32:04.890Z,9.58
2019-03-04T06:33:04.861Z,9.57
2019-03-04T06:34:04.844Z,9.57
2019-03-04T06:35:04.829Z,9.57
2019-03-04T06:36:04.830Z,9.57
2019-03-04T06:37:04.853Z,9.56
2019-03-04T06:38:04.801Z,9.57
2019-03-04T06:39:04.783Z,9.57
2019-03-04T06:40:04.779Z,9.61
2019-03-04T06:41:04.765Z,9.61
2019-03-04T06:42:04.756Z,9.54
2019-03-04T06:43:04.755Z,9.54
2019-03-04T06:44:04.732Z,9.60
2019-03-04T06:45:04.718Z,9.54
2019-03-04T06:46:04.707Z,9.61
2019-03-04T06:47:04.700Z,9.61
2019-03-04T06:48:04.716Z,9.65
2019-03-04T06:49:04.677Z,9.60
2019-03-04T06:50:04.666Z,9.71
2019-03-04T06:51:04.649Z,9.66
2019-03-04T06:52:04.640Z,9.75
2019-03-04T06:53:04.814Z,9.69
2019-03-04T06:54:04.620Z,9.68
2019-03-04T06:55:04.609Z,9.69
2019-03-04T06:56:04.602Z,9.72
2019-03-04T06:57:04.586Z,9.71
2019-03-04T06:58:04.578Z,9.74
2019-03-04T06:59:04.578Z,9.75
2019-03-04T07:00:04.549Z,9.69
2019-03-04T07:01:04.539Z,9.74
2019-03-04T07:02:04.525Z,9.75
2019-03-04T07:03:04.523Z,9.75
2019-03-04T07:04:04.513Z,9.71
2019-03-04T07:05:04.497Z,9.74
2019-03-04T07:06:04.481Z,9.79
2019-03-04T07:07:04.477Z,9.72
2019-03-04T07:08:04.464Z,9.76
2019-03-04T07:09:04.487Z,9.76
2019-03-04T07:10:04.435Z,9.76
2019-03-04T07:11:04.423Z,9.79
2019-03-04T07:12:04.417Z,9.74
2019-03-04T07:13:04.405Z,9.75
2019-03-04T07:14:04.391Z,9.84
2019-03-04T07:15:04.435Z,9.81
2019-03-04T07:16:04.405Z,9.78
2019-03-04T07:17:04.446Z,9.87
2019-03-04T07:18:04.346Z,9.91
2019-03-04T07:19:04.391Z,9.93
2019-03-04T07:20:04.409Z,10.02
2019-03-04T07:21:04.312Z,9.94
2019-03-04T07:22:04.307Z,9.90
2019-03-04T07:23:04.287Z,9.93
2019-03-04T07:24:04.294Z,9.96
2019-03-04T07:25:04.293Z,9.94
2019-03-04T07:26:04.255Z,9.91
2019-03-04T07:27:04.249Z,9.90
2019-03-04T07:28:04.253Z,9.96
2019-03-04T07:29:04.229Z,10.05
2019-03-04T07:30:04.233Z,10.08
2019-03-04T07:31:04.197Z,10.11
2019-03-04T07:32:04.189Z,10.17
2019-03-04T07:33:04.179Z,10.04
2019-03-04T07:34:04.169Z,10.18
2019-03-04T07:35:04.179Z,10.18
2019-03-04T07:36:04.149Z,10.20
2019-03-04T07:37:04.135Z,10.22
2019-03-04T07:38:04.122Z,10.17
2019-03-04T07:39:04.109Z,10.22
2019-03-04T07:40:04.115Z,10.29
2019-03-04T07:41:04.091Z,10.33
2019-03-04T07:42:04.092Z,10.25
2019-03-04T07:43:04.061Z,10.29
2019-03-04T07:44:04.050Z,10.34
2019-03-04T07:45:04.059Z,10.38
2019-03-04T07:46:04.026Z,10.45
2019-03-04T07:47:04.023Z,10.47
2019-03-04T07:48:04.007Z,10.42
2019-03-04T07:49:03.999Z,10.44
2019-03-04T07:50:04.002Z,10.48
2019-03-04T07:51:04.002Z,10.48
2019-03-04T07:52:03.962Z,10.51
2019-03-04T07:53:03.955Z,10.52
2019-03-04T07:54:03.944Z,10.56
2019-03-04T07:55:03.934Z,10.53
2019-03-04T07:56:03.970Z,10.47
2019-03-04T07:57:03.903Z,10.52
2019-03-04T07:58:03.917Z,10.51
2019-03-04T07:59:03.882Z,10.53
2019-03-04T08:00:03.943Z,10.51
2019-03-04T08:01:03.883Z,10.51
2019-03-04T08:02:03.850Z,10.51
2019-03-04T08:03:03.837Z,10.48
2019-03-04T08:04:03.824Z,10.51
2019-03-04T08:05:03.813Z,10.45
2019-03-04T08:06:03.855Z,10.52
2019-03-04T08:07:03.790Z,10.48
2019-03-04T08:08:03.791Z,10.56
2019-03-04T08:09:03.769Z,10.45
2019-03-04T08:10:03.769Z,10.53
2019-03-04T08:11:03.781Z,10.53
2019-03-04T08:12:03.733Z,10.56
2019-03-04T08:13:03.722Z,10.55
2019-03-04T08:14:03.716Z,10.61
2019-03-04T08:15:03.714Z,10.55
2019-03-04T08:16:03.704Z,10.59
2019-03-04T08:17:03.707Z,10.59
2019-03-04T08:18:03.671Z,10.60
2019-03-04T08:19:03.658Z,10.67
2019-03-04T08:20:03.647Z,10.61
2019-03-04T08:21:03.639Z,10.61
2019-03-04T08:22:03.646Z,10.64
2019-03-04T08:23:03.613Z,10.74
2019-03-04T08:24:03.611Z,10.78
2019-03-04T08:25:03.594Z,10.73
2019-03-04T08:26:03.582Z,10.76
2019-03-04T08:27:03.588Z,10.71
2019-03-04T08:28:03.556Z,10.78
2019-03-04T08:29:03.551Z,10.78
2019-03-04T08:30:03.536Z,10.81
2019-03-04T08:31:03.537Z,10.82
2019-03-04T08:32:03.547Z,10.88
2019-03-04T08:33:03.515Z,10.96
2019-03-04T08:34:03.494Z,10.96
2019-03-04T08:35:03.480Z,10.97
2019-03-04T08:36:03.465Z,10.96
2019-03-04T08:37:03.480Z,10.94
2019-03-04T08:38:03.448Z,11.07
2019-03-04T08:39:03.443Z,11.09
2019-03-04T08:40:03.429Z,11.25
2019-03-04T08:41:03.412Z,11.28
2019-03-04T08:42:03.427Z,11.32
2019-03-04T08:43:03.399Z,11.43
2019-03-04T08:44:03.386Z,11.43
2019-03-04T08:45:03.363Z,11.42
2019-03-04T08:46:03.357Z,11.47
2019-03-04T08:47:03.346Z,11.52
2019-03-04T08:48:03.349Z,11.64
2019-03-04T08:49:03.321Z,11.64
2019-03-04T08:50:03.312Z,11.76
2019-03-04T08:51:03.302Z,11.83
2019-03-04T08:52:03.292Z,11.80
2019-03-04T08:53:03.294Z,11.82
2019-03-04T08:54:03.257Z,11.82
2019-03-04T08:55:03.268Z,11.85
2019-03-04T08:56:03.305Z,11.88
2019-03-04T08:57:04.071Z,11.76
2019-03-04T08:58:03.230Z,11.90
2019-03-04T08:59:03.211Z,11.80
2019-03-04T09:00:03.193Z,11.75
2019-03-04T09:01:03.189Z,11.88
2019-03-04T09:02:03.179Z,11.90
2019-03-04T09:03:03.178Z,11.96
2019-03-04T09:04:03.150Z,11.94
2019-03-04T09:05:03.149Z,11.91
2019-03-04T09:06:03.129Z,11.94
2019-03-04T09:07:04.042Z,11.90
2019-03-04T09:08:03.125Z,11.85
2019-03-04T09:09:03.093Z,11.85
2019-03-04T09:10:03.089Z,11.90
2019-03-04T09:11:03.090Z,11.96
2019-03-04T09:12:03.064Z,11.90
2019-03-04T09:13:03.070Z,11.96
2019-03-04T09:14:03.054Z,11.83
2019-03-04T09:15:03.023Z,11.83
2019-03-04T09:16:03.033Z,11.96
2019-03-04T09:17:03.002Z,11.96
2019-03-04T09:18:03.018Z,12.02
2019-03-04T09:19:03.007Z,11.99
2019-03-04T09:20:02.976Z,12.09
2019-03-04T09:21:02.965Z,12.09
2019-03-04T09:22:02.945Z,12.21
2019-03-04T09:23:02.955Z,12.13
2019-03-04T09:24:02.921Z,12.13
2019-03-04T09:25:02.914Z,12.10
2019-03-04T09:26:02.906Z,12.21
2019-03-04T09:27:02.892Z,12.20
2019-03-04T09:28:02.902Z,12.16
2019-03-04T09:29:02.880Z,12.28
2019-03-04T09:30:02.860Z,12.24
2019-03-04T09:31:02.848Z,12.31
2019-03-04T09:32:02.831Z,12.28
2019-03-04T09:33:02.864Z,12.23
2019-03-04T09:34:02.815Z,12.21
2019-03-04T09:35:02.833Z,12.24
2019-03-04T09:36:02.786Z,12.41
2019-03-04T09:37:02.786Z,12.31
2019-03-04T09:38:02.767Z,12.52
2019-03-04T09:39:02.768Z,12.46
2019-03-04T09:40:02.741Z,12.56
2019-03-04T09:41:02.731Z,12.57
2019-03-04T09:42:02.718Z,12.56
2019-03-04T09:43:02.710Z,12.47
2019-03-04T09:44:02.713Z,12.47
2019-03-04T09:45:02.691Z,12.35
2019-03-04T09:46:02.678Z,12.39
2019-03-04T09:47:02.665Z,12.39
2019-03-04T09:48:02.654Z,12.37
2019-03-04T09:49:02.665Z,12.31
2019-03-04T09:50:02.629Z,12.29
2019-03-04T09:51:02.619Z,12.27
2019-03-04T09:52:02.609Z,12.28
2019-03-04T09:53:02.605Z,12.27
2019-03-04T09:54:02.612Z,12.27
2019-03-04T09:55:02.573Z,12.24
2019-03-04T09:56:02.583Z,12.28
2019-03-04T09:57:02.547Z,12.27
2019-03-04T09:58:02.548Z,12.31
2019-03-04T09:59:02.546Z,12.23
2019-03-04T10:00:02.515Z,12.29
2019-03-04T10:01:02.505Z,12.24
2019-03-04T10:02:02.501Z,12.23
2019-03-04T10:03:02.480Z,12.23
2019-03-04T10:04:02.497Z,12.38
2019-03-04T10:05:02.457Z,12.39
2019-03-04T10:06:02.452Z,12.45
2019-03-04T10:07:02.435Z,12.34
2019-03-04T10:08:02.433Z,12.46
2019-03-04T10:09:02.448Z,12.54
2019-03-04T10:10:02.413Z,12.50
2019-03-04T10:11:02.393Z,12.47
2019-03-04T10:12:02.463Z,12.60
2019-03-04T10:13:02.369Z,12.64
2019-03-04T10:14:02.360Z,12.74
2019-03-04T10:15:08.470Z,12.78
2019-03-04T10:16:03.347Z,12.75
2019-03-04T10:17:02.325Z,12.83
2019-03-04T10:18:02.318Z,12.87
2019-03-04T10:19:02.303Z,12.85
2019-03-04T10:20:02.305Z,12.86
2019-03-04T10:21:02.288Z,12.96
2019-03-04T10:22:02.268Z,12.85
2019-03-04T10:23:02.262Z,13.04
2019-03-04T10:24:02.253Z,12.96
2019-03-04T10:25:02.252Z,12.97
2019-03-04T10:26:02.225Z,12.93
2019-03-04T10:27:02.216Z,13.05
2019-03-04T10:28:02.199Z,13.12
2019-03-04T10:29:02.329Z,13.14
2019-03-04T10:30:02.200Z,13.28
2019-03-04T10:31:02.166Z,13.44
2019-03-04T10:32:02.158Z,13.49
2019-03-04T10:33:02.167Z,13.49
2019-03-04T10:34:02.131Z,13.59
2019-03-04T10:35:02.124Z,13.57
2019-03-04T10:36:02.136Z,13.81
2019-03-04T10:37:02.096Z,14.18
2019-03-04T10:38:02.095Z,15.01
2019-03-04T10:39:02.081Z,15.87
2019-03-04T10:40:02.067Z,16.56
2019-03-04T10:41:02.071Z,16.94
2019-03-04T10:42:02.046Z,17.31
2019-03-04T10:43:02.031Z,16.97
2019-03-04T10:44:02.035Z,16.60
2019-03-04T10:45:02.010Z,17.04
2019-03-04T10:46:01.995Z,17.48
2019-03-04T10:47:01.981Z,18.18
2019-03-04T10:48:01.974Z,18.08
2019-03-04T10:49:01.977Z,17.14
2019-03-04T10:50:01.962Z,16.66
2019-03-04T10:51:01.943Z,16.20
2019-03-04T10:52:01.949Z,15.76
2019-03-04T10:53:01.919Z,15.76
2019-03-04T10:54:01.915Z,15.53
2019-03-04T10:55:01.895Z,15.27
2019-03-04T10:56:01.886Z,15.11
2019-03-04T10:57:01.890Z,15.19
2019-03-04T10:58:01.862Z,15.16
2019-03-04T10:59:01.857Z,15.13
2019-03-04T11:00:01.862Z,15.10
2019-03-04T11:01:01.836Z,15.01
2019-03-04T11:02:01.819Z,15.09
2019-03-04T11:03:01.816Z,15.01
2019-03-04T11:04:01.792Z,15.11
2019-03-04T11:05:01.781Z,15.01
2019-03-04T11:06:01.775Z,15.14
2019-03-04T11:07:01.761Z,15.11
2019-03-04T11:08:01.770Z,15.11
2019-03-04T11:09:01.739Z,15.09
2019-03-04T11:10:01.727Z,15.31
2019-03-04T11:11:01.713Z,15.34
2019-03-04T11:12:01.717Z,15.32
2019-03-04T11:13:01.802Z,15.21
2019-03-04T11:14:01.676Z,15.32
2019-03-04T11:15:01.664Z,15.28
2019-03-04T11:16:03.040Z,15.29
2019-03-04T11:17:01.646Z,15.14
2019-03-04T11:18:01.639Z,15.17
2019-03-04T11:19:01.643Z,15.23
2019-03-04T11:20:01.613Z,15.21
2019-03-04T11:21:01.599Z,15.31
2019-03-04T11:22:01.597Z,15.36
2019-03-04T11:23:01.580Z,15.32
2019-03-04T11:24:01.586Z,15.32
2019-03-04T11:25:01.557Z,15.29
2019-03-04T11:26:01.544Z,15.17
2019-03-04T11:27:01.535Z,15.16
2019-03-04T11:28:01.516Z,15.19
2019-03-04T11:29:01.541Z,15.11
2019-03-04T11:30:01.510Z,15.13
2019-03-04T11:31:01.512Z,14.98
2019-03-04T11:32:01.473Z,14.89
2019-03-04T11:33:01.464Z,14.94
2019-03-04T11:34:01.479Z,14.84
2019-03-04T11:35:01.446Z,14.35
2019-03-04T11:36:01.430Z,13.46
2019-03-04T11:37:01.437Z,12.16
2019-03-04T11:38:01.411Z,11.17
2019-03-04T11:39:01.402Z,10.64
2019-03-04T11:40:01.380Z,10.20
2019-03-04T11:41:01.381Z,10.01
2019-03-04T11:42:01.393Z,9.79
2019-03-04T11:43:01.347Z,9.72
2019-03-04T11:44:01.341Z,9.64
2019-03-04T11:45:01.348Z,9.56
2019-03-04T11:46:01.317Z,9.43
2019-03-04T11:47:01.327Z,9.48
2019-03-04T11:48:01.288Z,9.36
2019-03-04T11:49:01.283Z,9.36
2019-03-04T11:50:01.306Z,9.35
2019-03-04T11:51:01.257Z,9.38
2019-03-04T11:52:01.261Z,9.40
2019-03-04T11:53:01.238Z,9.32
2019-03-04T11:54:01.231Z,9.35
2019-03-04T11:55:01.215Z,9.38
2019-03-04T11:56:01.231Z,9.38
2019-03-04T11:57:01.201Z,9.31
2019-03-04T11:58:01.191Z,9.36
2019-03-04T11:59:01.174Z,9.33
2019-03-04T12:00:01.162Z,9.35
2019-03-04T12:01:01.169Z,9.29
2019-03-04T12:02:01.146Z,9.11
2019-03-04T12:03:01.125Z,9.14
2019-03-04T12:04:01.119Z,8.94
2019-03-04T12:05:01.109Z,8.86
2019-03-04T12:06:01.112Z,8.83
2019-03-04T12:07:01.147Z,8.76
2019-03-04T12:08:01.068Z,8.84
2019-03-04T12:09:01.061Z,8.80
2019-03-04T12:10:01.050Z,8.89
2019-03-04T12:11:01.050Z,8.94
2019-03-04T12:12:01.023Z,8.99
2019-03-04T12:13:01.010Z,9.05
2019-03-04T12:14:03.194Z,9.10
2019-03-04T12:15:00.989Z,8.99
2019-03-04T12:16:01.010Z,9.08
2019-03-04T12:17:00.966Z,9.10
2019-03-04T12:18:00.959Z,9.17
2019-03-04T12:19:00.958Z,9.23
2019-03-04T12:20:00.937Z,9.20
2019-03-04T12:21:00.943Z,9.14
2019-03-04T12:22:00.911Z,9.31
2019-03-04T12:23:00.896Z,9.36
2019-03-04T12:24:00.888Z,9.39
2019-03-04T12:25:00.888Z,9.42
2019-03-04T12:26:00.880Z,9.42
2019-03-04T12:27:00.858Z,9.47
2019-03-04T12:28:00.848Z,9.60
2019-03-04T12:29:00.831Z,9.60
2019-03-04T12:30:00.875Z,9.64
2019-03-04T12:31:00.840Z,9.69
2019-03-04T12:32:00.796Z,9.72
2019-03-04T12:33:00.788Z,9.68
2019-03-04T12:34:00.778Z,9.71
2019-03-04T12:35:00.787Z,9.91
2019-03-04T12:36:00.751Z,10.07
2019-03-04T12:37:00.765Z,10.05
2019-03-04T12:38:00.738Z,10.11
2019-03-04T12:39:00.720Z,10.08
2019-03-04T12:40:00.716Z,9.94
2019-03-04T12:41:00.700Z,10.02
2019-03-04T12:42:00.707Z,10.33
2019-03-04T12:43:00.672Z,10.44
2019-03-04T12:44:00.668Z,10.92
2019-03-04T12:45:00.719Z,11.04
2019-03-04T12:46:00.636Z,11.24
2019-03-04T12:47:00.655Z,11.61
2019-03-04T12:48:00.614Z,11.96
2019-03-04T12:49:00.611Z,12.53
2019-03-04T12:50:00.612Z,12.77
2019-03-04T12:51:00.580Z,12.85
2019-03-04T12:52:00.593Z,13.07
2019-03-04T12:53:00.563Z,13.10
2019-03-04T12:54:00.551Z,13.04
2019-03-04T12:55:00.545Z,12.85
2019-03-04T12:56:00.523Z,13.04
2019-03-04T12:57:00.531Z,13.78
2019-03-04T12:58:00.507Z,14.14
2019-03-04T12:59:00.499Z,14.07
2019-03-04T13:00:00.490Z,14.14
2019-03-04T13:01:00.472Z,14.45
2019-03-04T13:02:00.483Z,14.28
2019-03-04T13:03:00.447Z,14.02
2019-03-04T13:04:00.435Z,13.97
2019-03-04T13:05:01.596Z,13.67
2019-03-04T13:06:00.417Z,13.52
2019-03-04T13:07:00.427Z,13.20